Portada
METAR-TAF:

METAR-TAF

Aeroports :

Londres Biggin Hill, Anglaterra

latitud: 51-19N, longitud: 000-02E, altitud: 183 m

Observació

L'informe es va fer fa 7 hores i 24 minuts, a les 21:20 UTC
Vent 13 kt del Oest/Sud-Oest, variant entre Sud/Sud-Oest i Oest
Temperatura 8°C
Humitat 81%
Pressió 1022 hPa
Visibilitat 10 km o més
Núvols disperses a una alçada de 1800 ft

METAR: EGKB 222120Z 25013KT 210V280 9999 SCT018 08/05 Q1022

Hora: 04:44 (04:44 UTC)

Pronòstic

L'informe es va fer fa 11 hores i 53 minuts, a les 16:51 UTC
Pronòstic vàlid del 22 a les 18 UTC al 22 a les 22 UTC
Vent 18 kt del Oest/Sud-Oest amb ràfegues de 28 kt
Visibilitat 10 km o més
Núvols disperses a una alçada de 3000 ft
Probabilitat 30% :
Temporalment
l' 22 a les 18 UTC al 22 a les 22 UTC
Visibilitat: 6000 m
Cel ennuvolat a una alçada de 1000 ft
pluja

TAF: EGKB 221651Z 2218/2222 25018G28KT 9999 SCT030 PROB30 TEMPO 2218/2222 6000 -RA BKN010

Observacions i pronòstics meteorològics de més de 4000 aeroports (METAR i TAF).

Les estacions disponibles són els punts grocs i vermells al mapa.

Posi el ratolí al punt desitjat per veure el nom de l'estació.

Feu clic per veure les observacions i els pronòstics meteorològics.

Per canviar el mapa: feu clic els botons verds amb una creu de color negre per apropar; al botó verd amb un guió per allunyar la imatge; o en les fletxes verdes per a mapes adjacents.


METAR-TAF: